sensor_id;sensor_type;location;lat;lon;timestamp;P1;durP1;ratioP1;P2;durP2;ratioP2
32501;SDS011;18952;52.516;13.460;2023-07-13T00:02:17;6.55;;;3.13;;
32501;SDS011;18952;52.516;13.460;2023-07-13T00:04:44;5.75;;;2.80;;
32501;SDS011;18952;52.516;13.460;2023-07-13T00:07:10;8.73;;;3.00;;
32501;SDS011;18952;52.516;13.460;2023-07-13T00:09:37;9.07;;;3.88;;
32501;SDS011;18952;52.516;13.460;2023-07-13T00:12:04;7.47;;;3.45;;
32501;SDS011;18952;52.516;13.460;2023-07-13T00:14:31;13.38;;;4.30;;
32501;SDS011;18952;52.516;13.460;2023-07-13T00:16:58;7.55;;;4.13;;
32501;SDS011;18952;52.516;13.460;2023-07-13T00:19:25;6.57;;;4.10;;
32501;SDS011;18952;52.516;13.460;2023-07-13T00:21:52;7.25;;;3.85;;
32501;SDS011;18952;52.516;13.460;2023-07-13T00:24:18;6.63;;;4.10;;
32501;SDS011;18952;52.516;13.460;2023-07-13T00:26:45;8.07;;;3.88;;
32501;SDS011;18952;52.516;13.460;2023-07-13T00:29:12;7.45;;;3.65;;
32501;SDS011;18952;52.516;13.460;2023-07-13T00:31:39;6.60;;;3.60;;
32501;SDS011;18952;52.516;13.460;2023-07-13T00:34:06;5.93;;;3.20;;
32501;SDS011;18952;52.516;13.460;2023-07-13T00:36:33;11.98;;;4.07;;
32501;SDS011;18952;52.516;13.460;2023-07-13T00:38:59;12.75;;;3.70;;
32501;SDS011;18952;52.516;13.460;2023-07-13T00:41:26;14.38;;;3.75;;
32501;SDS011;18952;52.516;13.460;2023-07-13T00:43:53;8.95;;;3.97;;
32501;SDS011;18952;52.516;13.460;2023-07-13T00:46:21;15.40;;;3.88;;
32501;SDS011;18952;52.516;13.460;2023-07-13T00:48:53;7.10;;;3.20;;
32501;SDS011;18952;52.516;13.460;2023-07-13T00:54:20;5.65;;;2.97;;
32501;SDS011;18952;52.516;13.460;2023-07-13T00:56:51;7.63;;;3.03;;
32501;SDS011;18952;52.516;13.460;2023-07-13T00:59:20;6.30;;;3.40;;
32501;SDS011;18952;52.516;13.460;2023-07-13T01:01:48;5.60;;;2.92;;
32501;SDS011;18952;52.516;13.460;2023-07-13T01:04:16;5.15;;;2.83;;
32501;SDS011;18952;52.516;13.460;2023-07-13T01:06:43;12.73;;;2.88;;
32501;SDS011;18952;52.516;13.460;2023-07-13T01:09:11;6.70;;;2.90;;
32501;SDS011;18952;52.516;13.460;2023-07-13T01:11:39;6.72;;;2.72;;
32501;SDS011;18952;52.516;13.460;2023-07-13T01:14:06;6.43;;;2.42;;
32501;SDS011;18952;52.516;13.460;2023-07-13T01:16:34;8.60;;;2.95;;
32501;SDS011;18952;52.516;13.460;2023-07-13T01:19:45;5.50;;;2.78;;
32501;SDS011;18952;52.516;13.460;2023-07-13T01:22:05;6.80;;;2.67;;
32501;SDS011;18952;52.516;13.460;2023-07-13T01:24:34;5.35;;;2.95;;
32501;SDS011;18952;52.516;13.460;2023-07-13T01:27:02;7.15;;;2.63;;
32501;SDS011;18952;52.516;13.460;2023-07-13T01:29:30;7.68;;;2.95;;
32501;SDS011;18952;52.516;13.460;2023-07-13T01:31:57;8.60;;;2.53;;
32501;SDS011;18952;52.516;13.460;2023-07-13T01:34:24;4.80;;;2.53;;
32501;SDS011;18952;52.516;13.460;2023-07-13T01:36:51;5.32;;;2.70;;
32501;SDS011;18952;52.516;13.460;2023-07-13T01:39:18;4.03;;;2.50;;
32501;SDS011;18952;52.516;13.460;2023-07-13T01:41:45;6.03;;;2.63;;
32501;SDS011;18952;52.516;13.460;2023-07-13T01:44:11;8.05;;;2.60;;
32501;SDS011;18952;52.516;13.460;2023-07-13T01:46:38;7.10;;;2.40;;
32501;SDS011;18952;52.516;13.460;2023-07-13T01:49:05;4.97;;;2.42;;
32501;SDS011;18952;52.516;13.460;2023-07-13T01:51:32;11.50;;;2.58;;
32501;SDS011;18952;52.516;13.460;2023-07-13T01:53:59;4.82;;;2.67;;
32501;SDS011;18952;52.516;13.460;2023-07-13T01:56:26;4.22;;;2.38;;
32501;SDS011;18952;52.516;13.460;2023-07-13T01:58:52;4.35;;;2.38;;
32501;SDS011;18952;52.516;13.460;2023-07-13T02:01:19;5.50;;;2.80;;
32501;SDS011;18952;52.516;13.460;2023-07-13T02:03:46;4.78;;;2.90;;
32501;SDS011;18952;52.516;13.460;2023-07-13T02:06:13;5.65;;;2.20;;
32501;SDS011;18952;52.516;13.460;2023-07-13T02:08:40;4.97;;;2.63;;
32501;SDS011;18952;52.516;13.460;2023-07-13T02:11:07;6.60;;;2.80;;
32501;SDS011;18952;52.516;13.460;2023-07-13T02:13:34;5.88;;;2.40;;
32501;SDS011;18952;52.516;13.460;2023-07-13T02:16:01;5.90;;;3.08;;
32501;SDS011;18952;52.516;13.460;2023-07-13T02:18:28;5.32;;;2.47;;
32501;SDS011;18952;52.516;13.460;2023-07-13T02:20:55;7.28;;;2.67;;
32501;SDS011;18952;52.516;13.460;2023-07-13T02:23:21;5.70;;;2.97;;
32501;SDS011;18952;52.516;13.460;2023-07-13T02:25:48;6.32;;;3.05;;
32501;SDS011;18952;52.516;13.460;2023-07-13T02:28:15;8.20;;;3.10;;
32501;SDS011;18952;52.516;13.460;2023-07-13T02:30:42;13.60;;;2.97;;
32501;SDS011;18952;52.516;13.460;2023-07-13T02:33:09;4.40;;;2.90;;
32501;SDS011;18952;52.516;13.460;2023-07-13T02:35:35;4.15;;;2.70;;
32501;SDS011;18952;52.516;13.460;2023-07-13T02:38:02;5.85;;;2.85;;
32501;SDS011;18952;52.516;13.460;2023-07-13T02:40:29;9.45;;;3.05;;
32501;SDS011;18952;52.516;13.460;2023-07-13T02:42:56;6.35;;;3.25;;
32501;SDS011;18952;52.516;13.460;2023-07-13T02:45:23;5.32;;;3.30;;
32501;SDS011;18952;52.516;13.460;2023-07-13T02:47:49;13.48;;;3.80;;
32501;SDS011;18952;52.516;13.460;2023-07-13T02:50:16;3.97;;;2.67;;
32501;SDS011;18952;52.516;13.460;2023-07-13T02:52:43;6.95;;;3.35;;
32501;SDS011;18952;52.516;13.460;2023-07-13T02:55:10;4.45;;;2.70;;
32501;SDS011;18952;52.516;13.460;2023-07-13T02:57:37;8.80;;;2.70;;
32501;SDS011;18952;52.516;13.460;2023-07-13T03:00:04;5.07;;;3.30;;
32501;SDS011;18952;52.516;13.460;2023-07-13T03:02:31;12.13;;;3.53;;
32501;SDS011;18952;52.516;13.460;2023-07-13T03:04:59;10.10;;;3.53;;
32501;SDS011;18952;52.516;13.460;2023-07-13T03:07:26;6.72;;;3.28;;
32501;SDS011;18952;52.516;13.460;2023-07-13T03:09:56;5.38;;;3.33;;
32501;SDS011;18952;52.516;13.460;2023-07-13T03:12:23;10.18;;;3.20;;
32501;SDS011;18952;52.516;13.460;2023-07-13T03:14:51;6.00;;;2.88;;
32501;SDS011;18952;52.516;13.460;2023-07-13T03:17:18;5.22;;;2.92;;
32501;SDS011;18952;52.516;13.460;2023-07-13T03:19:45;10.13;;;3.70;;
32501;SDS011;18952;52.516;13.460;2023-07-13T03:22:12;6.05;;;3.03;;
32501;SDS011;18952;52.516;13.460;2023-07-13T03:24:38;8.60;;;3.70;;
32501;SDS011;18952;52.516;13.460;2023-07-13T03:27:05;10.23;;;3.75;;
32501;SDS011;18952;52.516;13.460;2023-07-13T03:29:32;9.63;;;3.42;;
32501;SDS011;18952;52.516;13.460;2023-07-13T03:31:59;9.02;;;3.33;;
32501;SDS011;18952;52.516;13.460;2023-07-13T03:34:26;9.75;;;3.67;;
32501;SDS011;18952;52.516;13.460;2023-07-13T03:36:54;8.30;;;3.15;;
32501;SDS011;18952;52.516;13.460;2023-07-13T03:39:20;5.03;;;2.85;;
32501;SDS011;18952;52.516;13.460;2023-07-13T03:41:48;5.65;;;3.15;;
32501;SDS011;18952;52.516;13.460;2023-07-13T03:44:18;7.97;;;3.33;;
32501;SDS011;18952;52.516;13.460;2023-07-13T03:46:45;5.78;;;3.10;;
32501;SDS011;18952;52.516;13.460;2023-07-13T03:49:12;7.30;;;3.10;;
32501;SDS011;18952;52.516;13.460;2023-07-13T03:51:38;13.73;;;4.00;;
32501;SDS011;18952;52.516;13.460;2023-07-13T03:54:05;10.85;;;3.33;;
32501;SDS011;18952;52.516;13.460;2023-07-13T03:56:32;5.65;;;2.95;;
32501;SDS011;18952;52.516;13.460;2023-07-13T03:58:59;6.35;;;3.15;;
32501;SDS011;18952;52.516;13.460;2023-07-13T04:01:25;7.78;;;3.60;;
32501;SDS011;18952;52.516;13.460;2023-07-13T04:03:52;10.68;;;3.80;;
32501;SDS011;18952;52.516;13.460;2023-07-13T04:06:20;6.45;;;3.03;;
32501;SDS011;18952;52.516;13.460;2023-07-13T04:08:51;9.45;;;3.40;;
32501;SDS011;18952;52.516;13.460;2023-07-13T04:11:20;7.78;;;3.60;;
32501;SDS011;18952;52.516;13.460;2023-07-13T04:13:49;5.43;;;3.47;;
32501;SDS011;18952;52.516;13.460;2023-07-13T04:16:17;6.85;;;2.95;;
32501;SDS011;18952;52.516;13.460;2023-07-13T04:18:45;6.63;;;2.97;;
32501;SDS011;18952;52.516;13.460;2023-07-13T04:21:13;10.63;;;3.15;;
32501;SDS011;18952;52.516;13.460;2023-07-13T04:23:40;9.57;;;3.00;;
32501;SDS011;18952;52.516;13.460;2023-07-13T04:26:07;6.35;;;2.88;;
32501;SDS011;18952;52.516;13.460;2023-07-13T04:28:35;6.15;;;2.92;;
32501;SDS011;18952;52.516;13.460;2023-07-13T04:31:01;6.57;;;3.08;;
32501;SDS011;18952;52.516;13.460;2023-07-13T04:33:28;9.57;;;3.30;;
32501;SDS011;18952;52.516;13.460;2023-07-13T04:35:55;8.35;;;2.92;;
32501;SDS011;18952;52.516;13.460;2023-07-13T04:38:24;6.10;;;2.83;;
32501;SDS011;18952;52.516;13.460;2023-07-13T04:40:56;5.70;;;2.70;;
32501;SDS011;18952;52.516;13.460;2023-07-13T04:43:25;6.38;;;2.90;;
32501;SDS011;18952;52.516;13.460;2023-07-13T04:45:53;8.77;;;3.20;;
32501;SDS011;18952;52.516;13.460;2023-07-13T04:48:20;6.63;;;2.90;;
32501;SDS011;18952;52.516;13.460;2023-07-13T04:50:47;5.47;;;3.08;;
32501;SDS011;18952;52.516;13.460;2023-07-13T04:53:20;5.75;;;3.10;;
32501;SDS011;18952;52.516;13.460;2023-07-13T04:55:46;9.55;;;3.50;;
32501;SDS011;18952;52.516;13.460;2023-07-13T04:58:13;4.40;;;2.65;;
32501;SDS011;18952;52.516;13.460;2023-07-13T05:00:40;9.40;;;3.35;;
32501;SDS011;18952;52.516;13.460;2023-07-13T05:03:07;9.60;;;3.22;;
32501;SDS011;18952;52.516;13.460;2023-07-13T05:05:34;14.18;;;3.13;;
32501;SDS011;18952;52.516;13.460;2023-07-13T05:08:00;6.60;;;2.70;;
32501;SDS011;18952;52.516;13.460;2023-07-13T05:10:27;6.93;;;2.53;;
32501;SDS011;18952;52.516;13.460;2023-07-13T05:12:54;10.90;;;3.25;;
32501;SDS011;18952;52.516;13.460;2023-07-13T05:15:21;5.53;;;2.30;;
32501;SDS011;18952;52.516;13.460;2023-07-13T05:17:49;4.50;;;2.50;;
32501;SDS011;18952;52.516;13.460;2023-07-13T05:20:16;6.82;;;2.83;;
32501;SDS011;18952;52.516;13.460;2023-07-13T05:22:44;8.05;;;2.85;;
32501;SDS011;18952;52.516;13.460;2023-07-13T05:25:12;6.13;;;2.88;;
32501;SDS011;18952;52.516;13.460;2023-07-13T05:27:39;9.32;;;3.25;;
32501;SDS011;18952;52.516;13.460;2023-07-13T05:30:06;6.53;;;2.72;;
32501;SDS011;18952;52.516;13.460;2023-07-13T05:32:33;7.22;;;2.40;;
32501;SDS011;18952;52.516;13.460;2023-07-13T05:35:00;7.63;;;2.38;;
32501;SDS011;18952;52.516;13.460;2023-07-13T05:37:27;8.52;;;2.90;;
32501;SDS011;18952;52.516;13.460;2023-07-13T05:39:54;8.45;;;2.90;;
32501;SDS011;18952;52.516;13.460;2023-07-13T05:42:20;8.25;;;3.00;;
32501;SDS011;18952;52.516;13.460;2023-07-13T05:44:47;10.68;;;3.10;;
32501;SDS011;18952;52.516;13.460;2023-07-13T05:47:14;7.65;;;3.42;;
32501;SDS011;18952;52.516;13.460;2023-07-13T05:49:41;7.57;;;2.80;;
32501;SDS011;18952;52.516;13.460;2023-07-13T05:52:08;9.57;;;3.42;;
32501;SDS011;18952;52.516;13.460;2023-07-13T05:54:35;6.03;;;3.28;;
32501;SDS011;18952;52.516;13.460;2023-07-13T05:57:02;10.32;;;3.40;;
32501;SDS011;18952;52.516;13.460;2023-07-13T05:59:29;8.77;;;3.38;;
32501;SDS011;18952;52.516;13.460;2023-07-13T06:01:59;6.57;;;3.00;;
32501;SDS011;18952;52.516;13.460;2023-07-13T06:04:29;7.43;;;2.85;;
32501;SDS011;18952;52.516;13.460;2023-07-13T06:06:56;10.30;;;3.47;;
32501;SDS011;18952;52.516;13.460;2023-07-13T06:09:23;14.10;;;3.33;;
32501;SDS011;18952;52.516;13.460;2023-07-13T06:11:50;5.80;;;2.75;;
32501;SDS011;18952;52.516;13.460;2023-07-13T06:14:17;7.85;;;3.20;;
32501;SDS011;18952;52.516;13.460;2023-07-13T06:16:44;12.15;;;3.35;;
32501;SDS011;18952;52.516;13.460;2023-07-13T06:19:12;6.13;;;2.83;;
32501;SDS011;18952;52.516;13.460;2023-07-13T06:21:39;5.35;;;2.67;;
32501;SDS011;18952;52.516;13.460;2023-07-13T06:24:06;8.52;;;2.70;;
32501;SDS011;18952;52.516;13.460;2023-07-13T06:26:33;8.77;;;3.13;;
32501;SDS011;18952;52.516;13.460;2023-07-13T06:28:59;9.75;;;2.80;;
32501;SDS011;18952;52.516;13.460;2023-07-13T06:31:26;9.05;;;2.92;;
32501;SDS011;18952;52.516;13.460;2023-07-13T06:33:53;9.23;;;3.28;;
32501;SDS011;18952;52.516;13.460;2023-07-13T06:36:20;10.63;;;3.30;;
32501;SDS011;18952;52.516;13.460;2023-07-13T06:38:47;6.45;;;2.78;;
32501;SDS011;18952;52.516;13.460;2023-07-13T06:41:13;6.88;;;2.90;;
32501;SDS011;18952;52.516;13.460;2023-07-13T06:43:41;8.48;;;2.50;;
32501;SDS011;18952;52.516;13.460;2023-07-13T06:46:07;11.77;;;2.80;;
32501;SDS011;18952;52.516;13.460;2023-07-13T06:48:35;7.68;;;2.65;;
32501;SDS011;18952;52.516;13.460;2023-07-13T06:51:02;7.88;;;3.00;;
32501;SDS011;18952;52.516;13.460;2023-07-13T06:53:29;6.00;;;2.72;;
32501;SDS011;18952;52.516;13.460;2023-07-13T06:55:56;13.60;;;2.65;;
32501;SDS011;18952;52.516;13.460;2023-07-13T06:58:23;7.15;;;2.45;;
32501;SDS011;18952;52.516;13.460;2023-07-13T07:00:50;6.03;;;2.70;;
32501;SDS011;18952;52.516;13.460;2023-07-13T07:03:18;9.55;;;2.47;;
32501;SDS011;18952;52.516;13.460;2023-07-13T07:05:45;6.10;;;2.88;;
32501;SDS011;18952;52.516;13.460;2023-07-13T07:08:12;8.20;;;2.55;;
32501;SDS011;18952;52.516;13.460;2023-07-13T07:10:39;8.32;;;2.38;;
32501;SDS011;18952;52.516;13.460;2023-07-13T07:13:06;8.80;;;2.35;;
32501;SDS011;18952;52.516;13.460;2023-07-13T07:15:34;4.57;;;2.00;;
32501;SDS011;18952;52.516;13.460;2023-07-13T07:18:01;6.20;;;2.53;;
32501;SDS011;18952;52.516;13.460;2023-07-13T07:20:28;6.07;;;2.10;;
32501;SDS011;18952;52.516;13.460;2023-07-13T07:22:55;9.32;;;1.90;;
32501;SDS011;18952;52.516;13.460;2023-07-13T07:25:22;3.67;;;1.67;;
32501;SDS011;18952;52.516;13.460;2023-07-13T07:27:49;5.82;;;2.25;;
32501;SDS011;18952;52.516;13.460;2023-07-13T07:30:19;13.45;;;2.03;;
32501;SDS011;18952;52.516;13.460;2023-07-13T07:32:48;6.68;;;2.40;;
32501;SDS011;18952;52.516;13.460;2023-07-13T07:35:18;5.70;;;2.22;;
32501;SDS011;18952;52.516;13.460;2023-07-13T07:37:45;4.57;;;1.80;;
32501;SDS011;18952;52.516;13.460;2023-07-13T07:40:15;6.93;;;2.10;;
32501;SDS011;18952;52.516;13.460;2023-07-13T07:42:45;7.60;;;1.92;;
32501;SDS011;18952;52.516;13.460;2023-07-13T07:45:12;7.18;;;2.25;;
32501;SDS011;18952;52.516;13.460;2023-07-13T07:47:38;7.20;;;1.90;;
32501;SDS011;18952;52.516;13.460;2023-07-13T07:50:05;5.50;;;1.70;;
32501;SDS011;18952;52.516;13.460;2023-07-13T07:52:32;33.95;;;2.35;;
32501;SDS011;18952;52.516;13.460;2023-07-13T07:54:59;4.57;;;1.90;;
32501;SDS011;18952;52.516;13.460;2023-07-13T07:57:29;9.98;;;2.05;;
32501;SDS011;18952;52.516;13.460;2023-07-13T07:59:59;5.00;;;2.13;;
32501;SDS011;18952;52.516;13.460;2023-07-13T08:02:28;7.78;;;1.75;;
32501;SDS011;18952;52.516;13.460;2023-07-13T08:04:58;6.28;;;2.13;;
32501;SDS011;18952;52.516;13.460;2023-07-13T08:07:29;5.93;;;1.70;;
32501;SDS011;18952;52.516;13.460;2023-07-13T08:09:57;5.70;;;1.63;;
32501;SDS011;18952;52.516;13.460;2023-07-13T08:12:23;5.88;;;1.55;;
32501;SDS011;18952;52.516;13.460;2023-07-13T08:14:53;3.95;;;1.88;;
32501;SDS011;18952;52.516;13.460;2023-07-13T08:17:20;7.43;;;2.00;;
32501;SDS011;18952;52.516;13.460;2023-07-13T08:19:47;4.43;;;1.80;;
32501;SDS011;18952;52.516;13.460;2023-07-13T08:22:14;8.00;;;1.80;;
32501;SDS011;18952;52.516;13.460;2023-07-13T08:24:41;10.32;;;1.55;;
32501;SDS011;18952;52.516;13.460;2023-07-13T08:27:08;11.35;;;1.95;;
32501;SDS011;18952;52.516;13.460;2023-07-13T08:29:35;5.85;;;1.90;;
32501;SDS011;18952;52.516;13.460;2023-07-13T08:32:02;5.65;;;1.45;;
32501;SDS011;18952;52.516;13.460;2023-07-13T08:34:29;12.55;;;1.67;;
32501;SDS011;18952;52.516;13.460;2023-07-13T08:36:56;3.38;;;1.45;;
32501;SDS011;18952;52.516;13.460;2023-07-13T08:39:22;2.63;;;1.42;;
32501;SDS011;18952;52.516;13.460;2023-07-13T08:41:50;12.57;;;1.85;;
32501;SDS011;18952;52.516;13.460;2023-07-13T08:44:27;7.15;;;1.40;;
32501;SDS011;18952;52.516;13.460;2023-07-13T08:47:04;7.95;;;1.67;;
32501;SDS011;18952;52.516;13.460;2023-07-13T08:49:35;6.35;;;1.70;;
32501;SDS011;18952;52.516;13.460;2023-07-13T08:52:08;5.97;;;1.83;;
32501;SDS011;18952;52.516;13.460;2023-07-13T08:54:44;5.60;;;1.52;;
32501;SDS011;18952;52.516;13.460;2023-07-13T08:57:19;7.85;;;1.88;;
32501;SDS011;18952;52.516;13.460;2023-07-13T08:59:47;4.57;;;1.70;;
32501;SDS011;18952;52.516;13.460;2023-07-13T09:05:22;9.88;;;1.52;;
32501;SDS011;18952;52.516;13.460;2023-07-13T09:10:43;5.40;;;1.63;;
32501;SDS011;18952;52.516;13.460;2023-07-13T09:15:46;9.10;;;1.67;;
32501;SDS011;18952;52.516;13.460;2023-07-13T09:18:16;3.42;;;1.40;;
32501;SDS011;18952;52.516;13.460;2023-07-13T09:20:54;8.70;;;1.40;;
32501;SDS011;18952;52.516;13.460;2023-07-13T09:23:26;11.32;;;1.70;;
32501;SDS011;18952;52.516;13.460;2023-07-13T09:25:58;5.07;;;1.75;;
32501;SDS011;18952;52.516;13.460;2023-07-13T09:28:40;4.05;;;1.55;;
32501;SDS011;18952;52.516;13.460;2023-07-13T09:33:54;3.35;;;1.58;;
32501;SDS011;18952;52.516;13.460;2023-07-13T09:36:26;9.80;;;1.58;;
32501;SDS011;18952;52.516;13.460;2023-07-13T09:47:30;9.27;;;1.70;;
32501;SDS011;18952;52.516;13.460;2023-07-13T09:50:06;4.68;;;1.52;;
32501;SDS011;18952;52.516;13.460;2023-07-13T09:52:53;3.92;;;1.80;;
32501;SDS011;18952;52.516;13.460;2023-07-13T09:55:25;4.57;;;1.83;;
32501;SDS011;18952;52.516;13.460;2023-07-13T09:57:55;5.97;;;1.90;;
32501;SDS011;18952;52.516;13.460;2023-07-13T10:00:23;4.18;;;1.90;;
32501;SDS011;18952;52.516;13.460;2023-07-13T10:03:05;9.68;;;2.42;;
32501;SDS011;18952;52.516;13.460;2023-07-13T10:05:44;4.95;;;2.15;;
32501;SDS011;18952;52.516;13.460;2023-07-13T10:08:16;5.35;;;2.35;;
32501;SDS011;18952;52.516;13.460;2023-07-13T10:10:47;5.55;;;2.75;;
32501;SDS011;18952;52.516;13.460;2023-07-13T10:13:26;7.10;;;2.55;;
32501;SDS011;18952;52.516;13.460;2023-07-13T10:15:55;9.57;;;2.90;;
32501;SDS011;18952;52.516;13.460;2023-07-13T10:18:22;5.35;;;3.00;;
32501;SDS011;18952;52.516;13.460;2023-07-13T10:21:26;5.22;;;2.40;;
32501;SDS011;18952;52.516;13.460;2023-07-13T10:24:20;5.60;;;2.65;;
32501;SDS011;18952;52.516;13.460;2023-07-13T10:26:54;5.80;;;2.92;;
32501;SDS011;18952;52.516;13.460;2023-07-13T10:29:37;4.97;;;2.80;;
32501;SDS011;18952;52.516;13.460;2023-07-13T10:32:10;4.95;;;2.60;;
32501;SDS011;18952;52.516;13.460;2023-07-13T10:34:39;8.40;;;2.83;;
32501;SDS011;18952;52.516;13.460;2023-07-13T10:37:12;6.18;;;2.78;;
32501;SDS011;18952;52.516;13.460;2023-07-13T10:39:45;5.35;;;2.50;;
32501;SDS011;18952;52.516;13.460;2023-07-13T10:42:15;9.52;;;2.42;;
32501;SDS011;18952;52.516;13.460;2023-07-13T10:44:47;18.97;;;2.60;;
32501;SDS011;18952;52.516;13.460;2023-07-13T10:47:15;3.63;;;1.95;;
32501;SDS011;18952;52.516;13.460;2023-07-13T10:49:43;5.90;;;2.22;;
32501;SDS011;18952;52.516;13.460;2023-07-13T11:00:50;6.68;;;2.25;;
32501;SDS011;18952;52.516;13.460;2023-07-13T11:03:46;7.07;;;2.20;;
32501;SDS011;18952;52.516;13.460;2023-07-13T11:06:39;7.82;;;2.90;;
32501;SDS011;18952;52.516;13.460;2023-07-13T11:12:02;5.15;;;2.25;;
32501;SDS011;18952;52.516;13.460;2023-07-13T11:14:35;3.25;;;2.30;;
32501;SDS011;18952;52.516;13.460;2023-07-13T11:22:45;6.05;;;2.50;;
32501;SDS011;18952;52.516;13.460;2023-07-13T11:25:33;6.10;;;2.70;;
32501;SDS011;18952;52.516;13.460;2023-07-13T11:33:10;7.57;;;2.50;;
32501;SDS011;18952;52.516;13.460;2023-07-13T11:35:41;7.05;;;2.55;;
32501;SDS011;18952;52.516;13.460;2023-07-13T11:38:20;4.10;;;2.30;;
32501;SDS011;18952;52.516;13.460;2023-07-13T11:40:50;4.95;;;2.38;;
32501;SDS011;18952;52.516;13.460;2023-07-13T11:43:22;6.22;;;2.58;;
32501;SDS011;18952;52.516;13.460;2023-07-13T11:45:50;5.50;;;2.50;;
32501;SDS011;18952;52.516;13.460;2023-07-13T11:50:56;9.35;;;2.50;;
32501;SDS011;18952;52.516;13.460;2023-07-13T11:53:26;8.65;;;2.60;;
32501;SDS011;18952;52.516;13.460;2023-07-13T11:55:54;6.28;;;2.55;;
32501;SDS011;18952;52.516;13.460;2023-07-13T11:58:25;6.38;;;2.17;;
32501;SDS011;18952;52.516;13.460;2023-07-13T12:00:53;4.50;;;2.20;;
32501;SDS011;18952;52.516;13.460;2023-07-13T12:03:24;6.28;;;1.90;;
32501;SDS011;18952;52.516;13.460;2023-07-13T12:05:59;5.15;;;2.10;;
32501;SDS011;18952;52.516;13.460;2023-07-13T12:08:28;9.23;;;2.00;;
32501;SDS011;18952;52.516;13.460;2023-07-13T12:10:59;4.53;;;2.08;;
32501;SDS011;18952;52.516;13.460;2023-07-13T12:13:29;4.53;;;2.00;;
32501;SDS011;18952;52.516;13.460;2023-07-13T12:16:08;11.55;;;2.40;;
32501;SDS011;18952;52.516;13.460;2023-07-13T12:18:42;6.75;;;2.42;;
32501;SDS011;18952;52.516;13.460;2023-07-13T12:21:10;10.52;;;2.15;;
32501;SDS011;18952;52.516;13.460;2023-07-13T12:23:42;8.55;;;2.00;;
32501;SDS011;18952;52.516;13.460;2023-07-13T12:26:10;6.72;;;2.00;;
32501;SDS011;18952;52.516;13.460;2023-07-13T12:28:43;4.25;;;1.70;;
32501;SDS011;18952;52.516;13.460;2023-07-13T12:31:29;4.13;;;2.10;;
32501;SDS011;18952;52.516;13.460;2023-07-13T12:34:07;7.63;;;2.47;;
32501;SDS011;18952;52.516;13.460;2023-07-13T12:39:36;9.90;;;2.20;;
32501;SDS011;18952;52.516;13.460;2023-07-13T12:42:31;7.82;;;2.10;;
32501;SDS011;18952;52.516;13.460;2023-07-13T12:44:58;4.53;;;2.10;;
32501;SDS011;18952;52.516;13.460;2023-07-13T12:47:52;5.35;;;1.92;;
32501;SDS011;18952;52.516;13.460;2023-07-13T12:50:23;5.90;;;1.95;;
32501;SDS011;18952;52.516;13.460;2023-07-13T12:52:56;3.58;;;1.77;;
32501;SDS011;18952;52.516;13.460;2023-07-13T12:55:31;7.20;;;1.90;;
32501;SDS011;18952;52.516;13.460;2023-07-13T12:58:06;6.53;;;2.25;;
32501;SDS011;18952;52.516;13.460;2023-07-13T13:00:47;4.97;;;1.80;;
32501;SDS011;18952;52.516;13.460;2023-07-13T13:06:03;6.53;;;1.75;;
32501;SDS011;18952;52.516;13.460;2023-07-13T13:08:32;9.18;;;2.22;;
32501;SDS011;18952;52.516;13.460;2023-07-13T13:11:01;4.57;;;2.00;;
32501;SDS011;18952;52.516;13.460;2023-07-13T13:13:28;9.73;;;1.70;;
32501;SDS011;18952;52.516;13.460;2023-07-13T13:15:55;6.57;;;1.90;;
32501;SDS011;18952;52.516;13.460;2023-07-13T13:18:23;5.63;;;1.88;;
32501;SDS011;18952;52.516;13.460;2023-07-13T13:20:50;5.07;;;1.70;;
32501;SDS011;18952;52.516;13.460;2023-07-13T13:23:19;16.23;;;2.00;;
32501;SDS011;18952;52.516;13.460;2023-07-13T13:25:50;5.70;;;1.50;;
32501;SDS011;18952;52.516;13.460;2023-07-13T13:28:18;3.15;;;2.03;;
32501;SDS011;18952;52.516;13.460;2023-07-13T13:30:47;5.50;;;1.85;;
32501;SDS011;18952;52.516;13.460;2023-07-13T13:33:18;7.00;;;1.63;;
32501;SDS011;18952;52.516;13.460;2023-07-13T13:35:46;5.40;;;1.83;;
32501;SDS011;18952;52.516;13.460;2023-07-13T13:40:44;7.38;;;2.10;;
32501;SDS011;18952;52.516;13.460;2023-07-13T13:43:18;5.40;;;1.67;;
32501;SDS011;18952;52.516;13.460;2023-07-13T13:45:57;3.63;;;1.80;;
32501;SDS011;18952;52.516;13.460;2023-07-13T13:48:32;4.97;;;1.90;;
32501;SDS011;18952;52.516;13.460;2023-07-13T13:51:06;6.05;;;2.03;;
32501;SDS011;18952;52.516;13.460;2023-07-13T13:53:46;13.93;;;1.85;;
32501;SDS011;18952;52.516;13.460;2023-07-13T13:56:14;3.70;;;1.92;;
32501;SDS011;18952;52.516;13.460;2023-07-13T13:58:43;2.63;;;1.70;;
32501;SDS011;18952;52.516;13.460;2023-07-13T14:01:12;4.68;;;1.83;;
32501;SDS011;18952;52.516;13.460;2023-07-13T14:03:42;10.30;;;2.25;;
32501;SDS011;18952;52.516;13.460;2023-07-13T14:06:13;6.45;;;1.70;;
32501;SDS011;18952;52.516;13.460;2023-07-13T14:08:41;5.28;;;1.50;;
32501;SDS011;18952;52.516;13.460;2023-07-13T14:11:12;4.70;;;1.60;;
32501;SDS011;18952;52.516;13.460;2023-07-13T14:13:45;14.57;;;2.58;;
32501;SDS011;18952;52.516;13.460;2023-07-13T14:16:16;5.75;;;1.80;;
32501;SDS011;18952;52.516;13.460;2023-07-13T14:18:48;9.25;;;1.60;;
32501;SDS011;18952;52.516;13.460;2023-07-13T14:21:19;8.23;;;1.65;;
32501;SDS011;18952;52.516;13.460;2023-07-13T14:23:47;5.82;;;1.40;;
32501;SDS011;18952;52.516;13.460;2023-07-13T14:26:16;2.53;;;1.30;;
32501;SDS011;18952;52.516;13.460;2023-07-13T14:28:46;9.10;;;1.92;;
32501;SDS011;18952;52.516;13.460;2023-07-13T14:31:15;4.65;;;1.50;;
32501;SDS011;18952;52.516;13.460;2023-07-13T14:33:43;4.32;;;1.70;;
32501;SDS011;18952;52.516;13.460;2023-07-13T14:38:40;7.85;;;1.80;;
32501;SDS011;18952;52.516;13.460;2023-07-13T14:41:07;3.58;;;1.70;;
32501;SDS011;18952;52.516;13.460;2023-07-13T14:43:34;4.95;;;1.58;;
32501;SDS011;18952;52.516;13.460;2023-07-13T14:46:01;5.03;;;1.63;;
32501;SDS011;18952;52.516;13.460;2023-07-13T14:48:28;3.30;;;1.30;;
32501;SDS011;18952;52.516;13.460;2023-07-13T14:50:56;4.60;;;1.90;;
32501;SDS011;18952;52.516;13.460;2023-07-13T14:53:26;4.32;;;1.63;;
32501;SDS011;18952;52.516;13.460;2023-07-13T14:55:54;2.83;;;1.50;;
32501;SDS011;18952;52.516;13.460;2023-07-13T14:58:21;3.88;;;1.35;;
32501;SDS011;18952;52.516;13.460;2023-07-13T15:00:48;2.45;;;1.67;;
32501;SDS011;18952;52.516;13.460;2023-07-13T15:03:22;6.32;;;1.60;;
32501;SDS011;18952;52.516;13.460;2023-07-13T15:05:53;9.32;;;1.70;;
32501;SDS011;18952;52.516;13.460;2023-07-13T15:08:20;4.80;;;1.40;;
32501;SDS011;18952;52.516;13.460;2023-07-13T15:10:47;4.75;;;1.52;;
32501;SDS011;18952;52.516;13.460;2023-07-13T15:13:18;4.80;;;1.25;;
32501;SDS011;18952;52.516;13.460;2023-07-13T15:15:48;1.65;;;1.02;;
32501;SDS011;18952;52.516;13.460;2023-07-13T15:18:17;4.18;;;1.30;;
32501;SDS011;18952;52.516;13.460;2023-07-13T15:20:47;4.35;;;1.27;;
32501;SDS011;18952;52.516;13.460;2023-07-13T15:23:16;7.30;;;1.27;;
32501;SDS011;18952;52.516;13.460;2023-07-13T15:25:44;2.15;;;1.10;;
32501;SDS011;18952;52.516;13.460;2023-07-13T15:28:11;2.67;;;0.90;;
32501;SDS011;18952;52.516;13.460;2023-07-13T15:30:40;3.22;;;1.20;;
32501;SDS011;18952;52.516;13.460;2023-07-13T15:35:50;3.17;;;1.13;;
32501;SDS011;18952;52.516;13.460;2023-07-13T15:38:22;4.78;;;1.20;;
32501;SDS011;18952;52.516;13.460;2023-07-13T15:40:51;5.30;;;1.20;;
32501;SDS011;18952;52.516;13.460;2023-07-13T15:43:19;3.50;;;1.10;;
32501;SDS011;18952;52.516;13.460;2023-07-13T15:45:47;2.45;;;1.20;;
32501;SDS011;18952;52.516;13.460;2023-07-13T15:50:52;3.33;;;1.42;;